Time;durP1;ratioP1;P1;durP2;ratioP2;P2;SDS_P1;SDS_P2;PMS_P1;PMS_P2;Temp;Humidity;BMP_temperature;BMP_pressure;BME280_temperature;BME280_humidity;BME280_pressure;Samples;Min_cycle;Max_cycle;Signal;HPM_P1;HPM_P2
2022/12/04 00:00:09;;;;;;;;;;;;;;;2.54;100.00;99481.63;5003246;28;19917;-74
2022/12/04 00:02:35;;;;;;;;;;;;;;;1.72;100.00;99456.28;5002029;28;19956;-73
2022/12/04 00:05:01;;;;;;;;;;;;;;;2.48;100.00;99477.31;5003658;28;19917;-74
2022/12/04 00:07:26;;;;;;;;;;;;;;;1.91;100.00;99465.78;4994916;28;19917;-75
2022/12/04 00:09:51;;;;;;;;;;;;;;;1.75;100.00;99461.38;5001912;28;19930;-74
2022/12/04 00:12:16;;;;;;;;;;;;;;;1.91;100.00;99470.88;5005405;28;19993;-74
2022/12/04 00:14:41;;;;;;;;;;;;;;;2.01;100.00;99480.31;5006360;28;20323;-74
2022/12/04 00:17:07;;;;;;;;;;;;;;;1.74;100.00;99470.69;5005923;28;20244;-73
2022/12/04 00:19:32;;;;;;;;;;;;;;;1.98;100.00;99485.34;5007181;28;20382;-74
2022/12/04 00:21:57;;;;;;;;;;;;;;;2.02;100.00;99488.78;5007561;28;20347;-73
2022/12/04 00:24:22;;;;;;;;;;;;;;;1.88;100.00;99483.53;5006575;28;20391;-74
2022/12/04 00:26:48;;;;;;;;;;;;;;;2.03;100.00;99493.88;5007794;28;19918;-74
2022/12/04 00:29:13;;;;;;;;;;;;;;;1.72;100.00;99486.75;5006257;28;19947;-73
2022/12/04 00:31:38;;;;;;;;;;;;;;;1.66;100.00;99485.81;5005761;28;19921;-73
2022/12/04 00:34:03;;;;;;;;;;;;;;;1.72;100.00;99492.69;5007182;28;20008;-74
2022/12/04 00:36:29;;;;;;;;;;;;;;;1.88;100.00;99503.88;5006262;28;19921;-74
2022/12/04 00:38:54;;;;;;;;;;;;;;;1.12;100.00;99486.84;5005871;28;20299;-73
2022/12/04 00:41:22;;;;;;;;;;;;;;;2.30;100.00;99535.63;5006266;28;20520;-74
2022/12/04 00:43:47;;;;;;;;;;;;;;;2.39;100.00;99528.09;5005760;28;19921;-74
2022/12/04 00:46:13;;;;;;;;;;;;;;;2.37;100.00;99519.59;5006079;28;20004;-74
2022/12/04 00:48:38;;;;;;;;;;;;;;;2.35;100.00;99500.97;5005723;28;19929;-74
2022/12/04 00:51:08;;;;;;;;;;;;;;;2.27;100.00;99487.31;5005419;28;20094;-74
2022/12/04 00:53:33;;;;;;;;;;;;;;;1.61;100.00;99459.53;5005293;28;19984;-74
2022/12/04 00:56:02;;;;;;;;;;;;;;;1.81;100.00;99479.25;5006006;28;19929;-73
2022/12/04 00:58:27;;;;;;;;;;;;;;;1.69;100.00;99469.81;5005122;28;19928;-74
2022/12/04 01:00:59;;;;;;;;;;;;;;;2.38;100.00;99489.97;5006768;28;19921;-74
2022/12/04 01:03:24;;;;;;;;;;;;;;;2.13;100.00;99468.56;5007070;28;19924;-73
2022/12/04 01:05:50;;;;;;;;;;;;;;;1.59;100.00;99461.22;5006969;28;19921;-73
2022/12/04 01:08:15;;;;;;;;;;;;;;;2.03;100.00;99478.63;5006339;28;20119;-73
2022/12/04 01:10:40;;;;;;;;;;;;;;;2.26;100.00;99488.16;5006800;28;19979;-74
2022/12/04 01:13:06;;;;;;;;;;;;;;;1.54;100.00;99459.47;5005411;28;19921;-74
2022/12/04 01:15:31;;;;;;;;;;;;;;;1.66;100.00;99472.28;5007060;28;20020;-74
2022/12/04 01:17:56;;;;;;;;;;;;;;;2.20;100.00;99500.81;5005541;28;20008;-74
2022/12/04 01:20:21;;;;;;;;;;;;;;;1.82;100.00;99478.38;5006714;28;19974;-74
2022/12/04 01:22:46;;;;;;;;;;;;;;;2.44;100.00;99490.88;5006145;28;19989;-73
2022/12/04 01:25:12;;;;;;;;;;;;;;;2.09;100.00;99467.66;5005501;28;20331;-74
2022/12/04 01:27:37;;;;;;;;;;;;;;;2.17;100.00;99460.97;5006469;28;20000;-73
2022/12/04 01:30:02;;;;;;;;;;;;;;;1.70;100.00;99452.88;5005351;28;19961;-74
2022/12/04 01:32:28;;;;;;;;;;;;;;;1.17;100.00;99441.25;5005185;28;19913;-73
2022/12/04 01:34:53;;;;;;;;;;;;;;;2.18;100.00;99482.16;5006882;28;19914;-73
2022/12/04 01:37:18;;;;;;;;;;;;;;;1.73;100.00;99463.06;5006229;28;20028;-73
2022/12/04 01:39:43;;;;;;;;;;;;;;;1.52;100.00;99469.59;5004978;28;19922;-74
2022/12/04 01:42:12;;;;;;;;;;;;;;;1.51;100.00;99480.59;5006382;28;19928;-73
2022/12/04 01:44:37;;;;;;;;;;;;;;;1.74;100.00;99483.41;5006695;28;19920;-74
2022/12/04 01:47:02;;;;;;;;;;;;;;;1.45;100.00;99483.88;5005334;28;19913;-74
2022/12/04 01:49:30;;;;;;;;;;;;;;;1.83;100.00;99490.28;5006057;28;20460;-73
2022/12/04 01:51:58;;;;;;;;;;;;;;;1.92;100.00;99492.91;5005833;28;19923;-73
2022/12/04 01:54:30;;;;;;;;;;;;;;;2.55;100.00;99492.66;5004212;28;20439;-74
2022/12/04 01:57:00;;;;;;;;;;;;;;;2.30;100.00;99467.00;5006362;28;19913;-74
2022/12/04 01:59:26;;;;;;;;;;;;;;;2.02;100.00;99440.50;5003688;28;19924;-74
2022/12/04 02:01:56;;;;;;;;;;;;;;;2.20;100.00;99442.38;5005640;28;19918;-74
2022/12/04 02:04:21;;;;;;;;;;;;;;;1.98;100.00;99432.00;5004791;28;19917;-74
2022/12/04 02:06:46;;;;;;;;;;;;;;;1.98;100.00;99434.53;5003985;28;19921;-73
2022/12/04 02:09:12;;;;;;;;;;;;;;;2.04;100.00;99438.84;5004623;28;19968;-74
2022/12/04 02:11:49;;;;;;;;;;;;;;;2.62;100.00;99448.63;5004369;28;19928;-74
2022/12/04 02:14:20;;;;;;;;;;;;;;;2.58;100.00;99439.25;5005927;28;20065;-73
2022/12/04 02:16:54;;;;;;;;;;;;;;;2.15;100.00;99416.06;5004902;28;19921;-74
2022/12/04 02:19:19;;;;;;;;;;;;;;;2.66;100.00;99414.75;5004789;28;20372;-74
2022/12/04 02:21:45;;;;;;;;;;;;;;;2.51;100.00;99397.72;5005930;28;20008;-74
2022/12/04 02:24:16;;;;;;;;;;;;;;;2.04;100.00;99393.94;5004684;28;20020;-74
2022/12/04 02:27:00;;;;;;;;;;;;;;;2.11;100.00;99394.03;5005934;28;20460;-74
2022/12/04 02:29:37;;;;;;;;;;;;;;;2.15;100.00;99388.13;5005334;28;20011;-73
2022/12/04 02:32:11;;;;;;;;;;;;;;;2.39;100.00;99382.38;5004863;28;19918;-74
2022/12/04 02:35:03;;;;;;;;;;;;;;;1.97;100.00;99376.97;5003858;28;20291;-74
2022/12/04 02:37:28;;;;;;;;;;;;;;;2.17;100.00;99383.91;5003456;28;19990;-74
2022/12/04 02:39:54;;;;;;;;;;;;;;;1.30;100.00;99361.94;5005261;28;20372;-74
2022/12/04 02:42:26;;;;;;;;;;;;;;;0.90;100.00;99360.59;5004088;28;19917;-73
2022/12/04 02:44:52;;;;;;;;;;;;;;;1.68;100.00;99400.38;5005443;28;20382;-73
2022/12/04 02:47:18;;;;;;;;;;;;;;;1.53;100.00;99397.72;5004702;28;19926;-73
2022/12/04 02:49:45;;;;;;;;;;;;;;;2.01;100.00;99403.25;5002433;28;19954;-74
2022/12/04 02:52:11;;;;;;;;;;;;;;;2.25;100.00;99407.69;5001802;28;19925;-74
2022/12/04 02:54:37;;;;;;;;;;;;;;;1.57;100.00;99390.97;5002805;28;19921;-74
2022/12/04 02:57:03;;;;;;;;;;;;;;;2.31;100.00;99402.66;4987227;28;19917;-74
2022/12/04 02:59:38;;;;;;;;;;;;;;;1.71;100.00;99384.34;5002939;28;19921;-74
2022/12/04 03:02:08;;;;;;;;;;;;;;;1.33;100.00;99372.09;5003360;28;20023;-74
2022/12/04 03:04:33;;;;;;;;;;;;;;;1.67;100.00;99400.38;5003785;28;19918;-74
2022/12/04 03:07:04;;;;;;;;;;;;;;;1.72;100.00;99415.66;5003218;28;19924;-74
2022/12/04 03:09:33;;;;;;;;;;;;;;;1.95;100.00;99418.44;5003493;28;19922;-74
2022/12/04 03:12:24;;;;;;;;;;;;;;;1.40;100.00;99403.47;5002862;28;19925;-74
2022/12/04 03:14:51;;;;;;;;;;;;;;;1.62;100.00;99423.19;4995416;28;19925;-74
2022/12/04 03:17:19;;;;;;;;;;;;;;;1.24;100.00;99408.38;5003155;28;19918;-73
2022/12/04 03:19:45;;;;;;;;;;;;;;;1.65;100.00;99430.81;5002438;28;20388;-74
2022/12/04 03:22:12;;;;;;;;;;;;;;;1.18;100.00;99430.25;5004695;28;19932;-74
2022/12/04 03:24:38;;;;;;;;;;;;;;;1.46;100.00;99429.78;5003752;28;19928;-74
2022/12/04 03:27:03;;;;;;;;;;;;;;;1.65;100.00;99440.13;5003661;28;20295;-74
2022/12/04 03:29:38;;;;;;;;;;;;;;;1.14;100.00;99416.72;5003997;28;19921;-74
2022/12/04 03:32:05;;;;;;;;;;;;;;;1.88;100.00;99437.84;5002402;28;19918;-74
2022/12/04 03:34:34;;;;;;;;;;;;;;;1.89;100.00;99439.53;4989542;28;19922;-73
2022/12/04 03:37:04;;;;;;;;;;;;;;;1.96;100.00;99442.97;5003294;28;20020;-74
2022/12/04 03:39:32;;;;;;;;;;;;;;;1.90;100.00;99448.03;5003025;28;19917;-74
2022/12/04 03:41:58;;;;;;;;;;;;;;;1.76;100.00;99437.72;5002945;28;20348;-74
2022/12/04 03:44:26;;;;;;;;;;;;;;;1.74;100.00;99432.63;4999023;28;19921;-73
2022/12/04 03:46:56;;;;;;;;;;;;;;;1.46;100.00;99423.84;5003893;28;20001;-74
2022/12/04 03:49:24;;;;;;;;;;;;;;;1.18;100.00;99428.56;5003004;28;19917;-74
2022/12/04 03:52:21;;;;;;;;;;;;;;;1.48;100.00;99446.69;5003040;28;19917;-74
2022/12/04 03:54:55;;;;;;;;;;;;;;;1.01;100.00;99442.75;4991702;28;19921;-74
2022/12/04 03:57:23;;;;;;;;;;;;;;;1.27;100.00;99455.75;5002311;28;20381;-74
2022/12/04 03:59:50;;;;;;;;;;;;;;;1.13;100.00;99455.56;5002559;28;20016;-74
2022/12/04 04:02:16;;;;;;;;;;;;;;;1.40;100.00;99469.44;5002239;28;19928;-74
2022/12/04 04:04:41;;;;;;;;;;;;;;;2.11;100.00;99495.63;5004162;28;20291;-73
2022/12/04 04:07:20;;;;;;;;;;;;;;;1.82;100.00;99479.25;5002599;28;21582;-74
2022/12/04 04:09:45;;;;;;;;;;;;;;;1.90;100.00;99486.97;5002137;28;19936;-74
2022/12/04 04:12:12;;;;;;;;;;;;;;;1.81;100.00;99479.25;5002552;28;19917;-74
2022/12/04 04:25:56;;;;;;;;;;;;;;;1.97;100.00;99476.03;4984064;28;19921;-74
2022/12/04 04:28:27;;;;;;;;;;;;;;;1.86;100.00;99475.91;5002027;28;19927;-73
2022/12/04 04:30:53;;;;;;;;;;;;;;;1.85;100.00;99475.91;5004162;28;19925;-74
2022/12/04 04:33:18;;;;;;;;;;;;;;;1.51;100.00;99451.81;5002498;28;19918;-74
2022/12/04 04:35:43;;;;;;;;;;;;;;;1.87;100.00;99482.69;5002339;28;19917;-74
2022/12/04 04:38:16;;;;;;;;;;;;;;;1.58;100.00;99469.69;5003493;28;20280;-74
2022/12/04 04:41:01;;;;;;;;;;;;;;;1.68;100.00;99474.00;5003279;28;19923;-74
2022/12/04 04:43:39;;;;;;;;;;;;;;;1.21;100.00;99469.22;5003259;28;20415;-73
2022/12/04 04:46:12;;;;;;;;;;;;;;;1.42;100.00;99473.72;5002448;28;19965;-74
2022/12/04 04:48:37;;;;;;;;;;;;;;;1.90;100.00;99494.56;5001654;28;20011;-74
2022/12/04 04:51:02;;;;;;;;;;;;;;;1.85;100.00;99484.38;5003195;28;20016;-74
2022/12/04 04:54:03;;;;;;;;;;;;;;;1.97;100.00;99498.88;5001600;28;19923;-73
2022/12/04 04:56:28;;;;;;;;;;;;;;;1.66;100.00;99482.44;4979914;28;20327;-73
2022/12/04 04:58:53;;;;;;;;;;;;;;;1.84;100.00;99486.88;4993644;28;19925;-74
2022/12/04 05:01:20;;;;;;;;;;;;;;;1.96;100.00;99492.13;5005736;28;19928;-73
2022/12/04 05:03:45;;;;;;;;;;;;;;;1.91;100.00;99488.66;5003387;28;19929;-72
2022/12/04 05:06:10;;;;;;;;;;;;;;;1.58;100.00;99476.44;5004115;28;19996;-73
2022/12/04 05:08:36;;;;;;;;;;;;;;;1.79;100.00;99488.53;5005623;28;19917;-72
2022/12/04 05:11:01;;;;;;;;;;;;;;;1.89;100.00;99490.31;5005836;28;19917;-73
2022/12/04 05:13:27;;;;;;;;;;;;;;;1.72;100.00;99484.22;5004395;28;19927;-73
2022/12/04 05:16:00;;;;;;;;;;;;;;;2.11;99.68;99493.09;5003729;28;20415;-72
2022/12/04 05:18:25;;;;;;;;;;;;;;;2.34;100.00;99490.78;5003626;28;20360;-73
2022/12/04 05:20:50;;;;;;;;;;;;;;;1.81;100.00;99467.38;5004834;28;19924;-72
2022/12/04 05:23:15;;;;;;;;;;;;;;;1.33;100.00;99444.84;5003362;28;19992;-73
2022/12/04 05:25:41;;;;;;;;;;;;;;;1.97;100.00;99473.47;5005292;28;19921;-73
2022/12/04 05:28:06;;;;;;;;;;;;;;;1.52;100.00;99454.38;5004607;28;21171;-72
2022/12/04 05:30:31;;;;;;;;;;;;;;;1.74;100.00;99474.94;5005021;28;20470;-72
2022/12/04 05:32:56;;;;;;;;;;;;;;;1.97;100.00;99483.66;5004448;28;20517;-72
2022/12/04 05:35:21;;;;;;;;;;;;;;;1.45;100.00;99468.66;5004453;28;20545;-72
2022/12/04 05:37:47;;;;;;;;;;;;;;;1.87;99.65;99491.97;5004790;28;19932;-72
2022/12/04 05:40:12;;;;;;;;;;;;;;;2.03;98.36;99493.00;5004680;28;19932;-72
2022/12/04 05:42:37;;;;;;;;;;;;;;;1.35;98.91;99471.09;5003853;28;19924;-72
2022/12/04 05:45:03;;;;;;;;;;;;;;;1.44;95.69;99483.91;5004422;28;19917;-72
2022/12/04 05:47:28;;;;;;;;;;;;;;;1.39;92.54;99490.56;5004625;28;19918;-72
2022/12/04 05:49:53;;;;;;;;;;;;;;;1.62;88.50;99506.09;5004446;28;19933;-72
2022/12/04 05:52:18;;;;;;;;;;;;;;;1.24;89.96;99494.63;5003399;28;19917;-72
2022/12/04 05:54:44;;;;;;;;;;;;;;;1.40;83.27;99515.97;5004489;28;19929;-72
2022/12/04 05:57:09;;;;;;;;;;;;;;;1.27;82.52;99525.94;5004007;28;19933;-72
2022/12/04 05:59:34;;;;;;;;;;;;;;;1.43;82.56;99531.22;5005146;28;20012;-72
2022/12/04 06:01:59;;;;;;;;;;;;;;;1.85;81.73;99550.41;5005937;28;19987;-73
2022/12/04 06:04:25;;;;;;;;;;;;;;;2.29;81.33;99551.72;5005622;28;19977;-73
2022/12/04 06:06:51;;;;;;;;;;;;;;;1.72;87.56;99525.69;5004251;28;19968;-72
2022/12/04 06:09:16;;;;;;;;;;;;;;;2.04;87.43;99526.06;5003359;28;19921;-73
2022/12/04 06:11:42;;;;;;;;;;;;;;;1.83;90.05;99515.66;5005428;28;20279;-73
2022/12/04 06:14:07;;;;;;;;;;;;;;;1.42;90.04;99499.09;5005767;28;20279;-73
2022/12/04 06:16:33;;;;;;;;;;;;;;;1.54;85.04;99526.31;5005578;28;20442;-73
2022/12/04 06:19:00;;;;;;;;;;;;;;;1.40;84.31;99531.22;5003791;28;19982;-73
2022/12/04 06:21:26;;;;;;;;;;;;;;;1.27;83.30;99533.56;5003539;28;19972;-73
2022/12/04 06:23:52;;;;;;;;;;;;;;;1.37;81.27;99541.31;5004452;28;19919;-73
2022/12/04 06:26:17;;;;;;;;;;;;;;;1.21;81.02;99531.81;5004301;28;19917;-72
2022/12/04 06:28:42;;;;;;;;;;;;;;;0.82;80.73;99531.22;5005231;28;19918;-73
2022/12/04 06:31:08;;;;;;;;;;;;;;;1.61;75.57;99568.69;5005356;28;20385;-72
2022/12/04 06:33:34;;;;;;;;;;;;;;;1.40;75.21;99565.88;5005384;28;19944;-73
2022/12/04 06:35:59;;;;;;;;;;;;;;;1.54;73.14;99577.06;5003745;28;20568;-72
2022/12/04 06:38:24;;;;;;;;;;;;;;;1.63;74.64;99584.81;5005077;28;20008;-73
2022/12/04 06:40:49;;;;;;;;;;;;;;;1.67;74.79;99576.41;5005504;28;19929;-73
2022/12/04 06:43:15;;;;;;;;;;;;;;;2.11;74.19;99595.56;5003752;28;19913;-73
2022/12/04 06:45:40;;;;;;;;;;;;;;;2.56;74.37;99598.59;5005408;28;19919;-73
2022/12/04 06:48:05;;;;;;;;;;;;;;;1.70;83.82;99562.06;5005245;28;20041;-73
2022/12/04 06:50:30;;;;;;;;;;;;;;;1.79;81.73;99559.63;5004518;28;20020;-73
2022/12/04 06:52:55;;;;;;;;;;;;;;;1.27;82.40;99543.69;5003400;28;19991;-72
2022/12/04 06:55:21;;;;;;;;;;;;;;;1.63;77.84;99556.88;5004991;28;20263;-72
2022/12/04 06:57:46;;;;;;;;;;;;;;;1.73;78.35;99570.53;5005130;28;20327;-72
2022/12/04 07:00:11;;;;;;;;;;;;;;;1.80;78.03;99568.94;5002857;28;20299;-72
2022/12/04 07:02:36;;;;;;;;;;;;;;;1.85;78.26;99582.56;5004439;28;20558;-72
2022/12/04 07:05:02;;;;;;;;;;;;;;;2.23;75.78;99593.16;5004581;28;19926;-73
2022/12/04 07:07:27;;;;;;;;;;;;;;;2.39;79.38;99589.09;5004214;28;20008;-72
2022/12/04 07:09:52;;;;;;;;;;;;;;;1.62;85.40;99562.81;5003585;28;19968;-72
2022/12/04 07:12:17;;;;;;;;;;;;;;;1.70;80.64;99559.50;5005039;28;19933;-72
2022/12/04 07:14:43;;;;;;;;;;;;;;;1.77;81.99;99566.38;5004044;28;19972;-73
2022/12/04 07:17:08;;;;;;;;;;;;;;;2.20;80.22;99571.97;5003302;28;19921;-73
2022/12/04 07:19:33;;;;;;;;;;;;;;;1.48;85.26;99554.13;5003136;28;19925;-72
2022/12/04 07:21:58;;;;;;;;;;;;;;;1.94;82.42;99569.97;5004085;28;19917;-73
2022/12/04 07:24:23;;;;;;;;;;;;;;;2.22;82.20;99576.22;5002929;28;19917;-72
2022/12/04 07:26:49;;;;;;;;;;;;;;;1.64;88.01;99558.59;5003409;28;20476;-72
2022/12/04 07:29:14;;;;;;;;;;;;;;;1.66;84.35;99553.53;5003255;28;20383;-72
2022/12/04 07:31:39;;;;;;;;;;;;;;;1.63;82.52;99559.44;5004049;28;19917;-72
2022/12/04 07:34:04;;;;;;;;;;;;;;;1.75;80.64;99565.50;5003006;28;19917;-73
2022/12/04 07:36:30;;;;;;;;;;;;;;;2.21;78.67;99584.69;5004365;28;19921;-73
2022/12/04 07:38:55;;;;;;;;;;;;;;;2.23;80.44;99583.00;5003558;28;19921;-73
2022/12/04 07:41:20;;;;;;;;;;;;;;;1.86;83.39;99571.56;5003977;28;19922;-73
2022/12/04 07:43:46;;;;;;;;;;;;;;;2.53;80.14;99584.16;4986176;28;20354;-72
2022/12/04 07:46:15;;;;;;;;;;;;;;;2.31;85.09;99562.75;5002740;28;19922;-73
2022/12/04 07:48:41;;;;;;;;;;;;;;;2.34;86.52;99560.25;5002540;28;19925;-73
2022/12/04 07:51:07;;;;;;;;;;;;;;;2.35;85.70;99558.53;5002766;28;20257;-72
2022/12/04 07:53:33;;;;;;;;;;;;;;;2.60;87.43;99557.97;5002202;28;19928;-73
2022/12/04 07:55:58;;;;;;;;;;;;;;;2.65;90.81;99555.47;5002681;28;20408;-73
2022/12/04 07:58:23;;;;;;;;;;;;;;;2.14;92.71;99523.59;5003882;28;20458;-72
2022/12/04 08:00:49;;;;;;;;;;;;;;;1.83;91.64;99515.66;5002589;28;20353;-73
2022/12/04 08:03:14;;;;;;;;;;;;;;;2.43;85.21;99550.16;5004108;28;19932;-72
2022/12/04 08:05:39;;;;;;;;;;;;;;;1.91;88.13;99546.22;5004129;28;19963;-73
2022/12/04 08:08:04;;;;;;;;;;;;;;;1.82;88.21;99541.88;5003670;28;20376;-72
2022/12/04 08:10:29;;;;;;;;;;;;;;;1.46;86.12;99546.53;5003706;28;20654;-72
2022/12/04 08:12:55;;;;;;;;;;;;;;;2.13;79.39;99572.72;5003642;28;20303;-73
2022/12/04 08:15:20;;;;;;;;;;;;;;;1.74;82.52;99571.41;5003366;28;20390;-72
2022/12/04 08:17:45;;;;;;;;;;;;;;;2.00;79.44;99580.19;5002563;28;19917;-73
2022/12/04 08:20:11;;;;;;;;;;;;;;;2.04;78.17;99592.09;5003496;28;19918;-73
2022/12/04 08:22:36;;;;;;;;;;;;;;;1.54;81.11;99579.63;5003946;28;19992;-72
2022/12/04 08:25:01;;;;;;;;;;;;;;;2.02;75.74;99598.00;5004146;28;19945;-72
2022/12/04 08:27:26;;;;;;;;;;;;;;;2.65;73.78;99616.50;5003565;28;19921;-73
2022/12/04 08:29:51;;;;;;;;;;;;;;;2.51;78.10;99604.50;5003641;28;19929;-72
2022/12/04 08:32:17;;;;;;;;;;;;;;;1.98;82.73;99575.94;5003318;28;19972;-71
2022/12/04 08:34:42;;;;;;;;;;;;;;;1.75;81.75;99565.50;5006485;28;19968;-73
2022/12/04 08:37:07;;;;;;;;;;;;;;;2.35;76.08;99597.53;5007394;28;19921;-72
2022/12/04 08:39:32;;;;;;;;;;;;;;;1.75;78.80;99583.28;5007135;28;19929;-73
2022/12/04 08:41:58;;;;;;;;;;;;;;;1.49;76.70;99580.41;5005065;28;19928;-73
2022/12/04 08:44:23;;;;;;;;;;;;;;;1.38;74.24;99598.00;5006769;28;19932;-73
2022/12/04 08:46:48;;;;;;;;;;;;;;;2.06;66.82;99627.69;5004622;28;19917;-73
2022/12/04 08:49:13;;;;;;;;;;;;;;;1.98;67.87;99635.19;5006184;28;20016;-72
2022/12/04 08:51:38;;;;;;;;;;;;;;;1.78;67.16;99626.47;5007328;28;19924;-74
2022/12/04 08:54:05;;;;;;;;;;;;;;;2.30;66.26;99652.53;5006686;28;19926;-74
2022/12/04 08:56:31;;;;;;;;;;;;;;;1.85;70.53;99635.91;5006410;28;20459;-74
2022/12/04 08:58:56;;;;;;;;;;;;;;;1.85;69.20;99643.53;5004648;28;20020;-74
2022/12/04 09:01:21;;;;;;;;;;;;;;;2.25;67.19;99656.72;5006406;28;20311;-73
2022/12/04 09:03:47;;;;;;;;;;;;;;;2.39;68.08;99657.72;5006095;28;20012;-74
2022/12/04 09:06:12;;;;;;;;;;;;;;;2.23;69.36;99640.59;5007254;28;20410;-74
2022/12/04 09:08:38;;;;;;;;;;;;;;;1.53;72.83;99617.66;5007120;28;20981;-74
2022/12/04 09:11:11;;;;;;;;;;;;;;;2.84;63.66;99679.41;5007129;28;19921;-74
2022/12/04 09:13:37;;;;;;;;;;;;;;;1.97;72.23;99638.59;5005666;28;19987;-74
2022/12/04 09:16:03;;;;;;;;;;;;;;;2.66;66.64;99658.88;5005335;28;19983;-74
2022/12/04 09:18:28;;;;;;;;;;;;;;;2.38;71.32;99648.41;5004899;28;20427;-74
2022/12/04 09:20:54;;;;;;;;;;;;;;;2.04;72.21;99635.28;5005493;28;19944;-74
2022/12/04 09:23:19;;;;;;;;;;;;;;;2.54;68.43;99654.50;5006846;28;19921;-74
2022/12/04 09:25:44;;;;;;;;;;;;;;;2.68;69.87;99658.03;5006457;28;20698;-74
2022/12/04 09:28:09;;;;;;;;;;;;;;;2.55;72.42;99652.81;5006001;28;20571;-73
2022/12/04 09:30:35;;;;;;;;;;;;;;;2.71;72.43;99644.50;5006377;28;20387;-73
2022/12/04 09:33:00;;;;;;;;;;;;;;;3.31;71.02;99666.25;5005923;28;20410;-74
2022/12/04 09:35:25;;;;;;;;;;;;;;;2.71;76.90;99624.16;5006377;28;20325;-74
2022/12/04 09:37:50;;;;;;;;;;;;;;;2.37;78.54;99612.78;5006520;28;19913;-74
2022/12/04 09:40:22;;;;;;;;;;;;;;;2.77;74.66;99626.78;5005810;28;20943;-73
2022/12/04 09:42:49;;;;;;;;;;;;;;;2.64;76.61;99630.88;5005006;28;20364;-73
2022/12/04 09:45:17;;;;;;;;;;;;;;;2.78;76.64;99627.63;5005358;28;19913;-73
2022/12/04 09:47:43;;;;;;;;;;;;;;;2.68;77.63;99622.44;5004626;28;20029;-74
2022/12/04 09:50:22;;;;;;;;;;;;;;;2.51;78.77;99614.66;5005176;28;20432;-74
2022/12/04 09:52:57;;;;;;;;;;;;;;;2.74;76.94;99626.75;5004154;28;20453;-74
2022/12/04 09:55:42;;;;;;;;;;;;;;;2.62;78.52;99624.94;5005995;28;19924;-74
2022/12/04 09:58:17;;;;;;;;;;;;;;;2.58;77.91;99614.69;5005238;28;19921;-73
2022/12/04 10:00:43;;;;;;;;;;;;;;;2.59;76.40;99612.19;5004420;28;19945;-74
2022/12/04 10:03:16;;;;;;;;;;;;;;;2.53;76.10;99618.88;5004454;28;19926;-74
2022/12/04 10:05:41;;;;;;;;;;;;;;;2.16;78.09;99610.88;5005016;28;19925;-76
2022/12/04 10:08:09;;;;;;;;;;;;;;;2.69;70.82;99628.38;5001438;28;19922;-75
2022/12/04 10:10:41;;;;;;;;;;;;;;;2.63;71.61;99633.41;5004161;28;20056;-74
2022/12/04 10:13:26;;;;;;;;;;;;;;;2.67;70.75;99640.25;5004413;28;19914;-74
2022/12/04 10:15:53;;;;;;;;;;;;;;;2.49;70.23;99626.50;5005404;28;19924;-74
2022/12/04 10:18:19;;;;;;;;;;;;;;;2.62;68.70;99641.88;5005196;28;19941;-74
2022/12/04 10:20:44;;;;;;;;;;;;;;;2.63;69.89;99644.44;5005963;28;19917;-74
2022/12/04 10:23:15;;;;;;;;;;;;;;;2.45;72.10;99632.38;5005237;28;19921;-74
2022/12/04 10:25:40;;;;;;;;;;;;;;;2.85;67.77;99647.19;5005468;28;19917;-75
2022/12/04 10:28:18;;;;;;;;;;;;;;;3.05;68.72;99657.56;5003926;28;19932;-74
2022/12/04 10:30:43;;;;;;;;;;;;;;;2.96;72.56;99642.19;5001172;28;20296;-74
2022/12/04 10:33:18;;;;;;;;;;;;;;;3.03;71.97;99638.88;4987709;28;19914;-73
2022/12/04 10:35:44;;;;;;;;;;;;;;;2.97;74.35;99632.06;5002686;28;19921;-72
2022/12/04 10:38:11;;;;;;;;;;;;;;;3.04;73.95;99635.50;5003022;28;19919;-72
2022/12/04 10:40:37;;;;;;;;;;;;;;;3.01;72.58;99630.38;5003242;28;19948;-71
2022/12/04 10:43:21;;;;;;;;;;;;;;;2.81;74.75;99620.88;5003234;28;19917;-73
2022/12/04 10:45:46;;;;;;;;;;;;;;;2.57;76.32;99600.28;5004868;28;19961;-76
2022/12/04 10:48:20;;;;;;;;;;;;;;;2.75;73.87;99603.00;5003249;28;19963;-72
2022/12/04 10:50:47;;;;;;;;;;;;;;;3.22;73.60;99615.28;5003222;28;21576;-73
2022/12/04 10:53:13;;;;;;;;;;;;;;;3.64;73.53;99620.66;5003340;28;19921;-73
2022/12/04 10:55:38;;;;;;;;;;;;;;;2.55;83.75;99567.22;5003229;28;19921;-73
2022/12/04 10:58:13;;;;;;;;;;;;;;;3.03;77.33;99575.25;5004947;28;19921;-73
2022/12/04 11:00:38;;;;;;;;;;;;;;;2.89;77.22;99568.38;5005324;28;20375;-73
2022/12/04 11:03:07;;;;;;;;;;;;;;;2.43;80.51;99550.16;5005322;28;19917;-73
2022/12/04 11:05:36;;;;;;;;;;;;;;;2.35;78.43;99551.78;5004043;28;19925;-74
2022/12/04 11:08:02;;;;;;;;;;;;;;;2.45;75.28;99568.81;5004875;28;20339;-74
2022/12/04 11:10:34;;;;;;;;;;;;;;;2.67;73.83;99590.22;5002959;28;19931;-74
2022/12/04 11:13:13;;;;;;;;;;;;;;;2.85;75.26;99592.09;5001504;28;20300;-73
2022/12/04 11:15:42;;;;;;;;;;;;;;;2.40;79.65;99565.41;5004309;28;19917;-73
2022/12/04 11:18:08;;;;;;;;;;;;;;;2.70;74.48;99574.16;5001386;28;19951;-74
2022/12/04 11:20:33;;;;;;;;;;;;;;;3.17;72.51;99590.63;4999526;28;20006;-74
2022/12/04 11:22:59;;;;;;;;;;;;;;;3.67;73.25;99588.44;5001373;28;20376;-73
2022/12/04 11:25:25;;;;;;;;;;;;;;;2.98;81.27;99554.03;5003850;28;20015;-73
2022/12/04 11:27:51;;;;;;;;;;;;;;;2.24;82.69;99525.41;5002475;28;20244;-74
2022/12/04 11:30:35;;;;;;;;;;;;;;;2.49;76.82;99534.97;5002152;28;19926;-73
2022/12/04 11:33:00;;;;;;;;;;;;;;;2.68;74.97;99551.25;5003172;28;19917;-73
2022/12/04 11:35:26;;;;;;;;;;;;;;;2.76;73.38;99569.13;5003274;28;19960;-73
2022/12/04 11:37:53;;;;;;;;;;;;;;;2.88;73.74;99568.38;4986018;28;19918;-73
2022/12/04 11:40:19;;;;;;;;;;;;;;;3.11;73.12;99566.00;4986511;28;20330;-73
2022/12/04 11:42:44;;;;;;;;;;;;;;;2.45;77.53;99532.41;5001483;28;20257;-73
2022/12/04 11:45:20;;;;;;;;;;;;;;;2.63;74.67;99552.91;5002425;28;21100;-73
2022/12/04 11:47:56;;;;;;;;;;;;;;;2.73;73.33;99559.75;5002592;28;19979;-72
2022/12/04 11:50:25;;;;;;;;;;;;;;;2.97;72.02;99571.00;5002119;28;19918;-73
2022/12/04 11:53:03;;;;;;;;;;;;;;;2.61;75.45;99559.66;5002068;28;20287;-73
2022/12/04 11:55:47;;;;;;;;;;;;;;;3.08;71.99;99565.97;5001743;28;19920;-73
2022/12/04 11:58:17;;;;;;;;;;;;;;;3.18;73.48;99567.75;5002243;28;19925;-73
2022/12/04 12:00:49;;;;;;;;;;;;;;;3.62;73.00;99568.84;5002335;28;19964;-73
2022/12/04 12:03:15;;;;;;;;;;;;;;;3.84;76.78;99544.34;5000141;28;19972;-72
2022/12/04 12:05:40;;;;;;;;;;;;;;;3.37;83.19;99511.84;5001137;28;19921;-71
2022/12/04 12:08:18;;;;;;;;;;;;;;;3.35;84.74;99499.97;5003697;28;20327;-72
2022/12/04 12:10:50;;;;;;;;;;;;;;;3.73;84.51;99493.34;5007251;28;20494;-72
2022/12/04 12:13:19;;;;;;;;;;;;;;;2.91;89.15;99459.84;5007756;28;19922;-72
2022/12/04 12:15:54;;;;;;;;;;;;;;;3.17;83.42;99484.63;5005566;28;20419;-71
2022/12/04 12:18:31;;;;;;;;;;;;;;;2.60;87.23;99471.53;5005899;28;20427;-71
2022/12/04 12:21:08;;;;;;;;;;;;;;;2.60;83.60;99470.63;5007826;28;19917;-73
2022/12/04 12:23:38;;;;;;;;;;;;;;;2.92;78.63;99504.81;5006192;28;19924;-74
2022/12/04 12:26:03;;;;;;;;;;;;;;;2.79;76.65;99518.28;5005653;28;19918;-74
2022/12/04 12:28:34;;;;;;;;;;;;;;;3.56;73.56;99544.22;5006661;28;19918;-74
2022/12/04 12:31:06;;;;;;;;;;;;;;;3.34;77.73;99526.25;5007248;28;19936;-73
2022/12/04 12:33:33;;;;;;;;;;;;;;;3.49;76.66;99527.19;5004744;28;20647;-73
2022/12/04 12:36:00;;;;;;;;;;;;;;;3.25;79.74;99513.50;5000749;28;19921;-71
2022/12/04 12:38:31;;;;;;;;;;;;;;;2.83;79.35;99506.41;5002455;28;19926;-72
2022/12/04 12:41:04;;;;;;;;;;;;;;;2.84;76.05;99508.13;5005183;28;19917;-72
2022/12/04 12:43:30;;;;;;;;;;;;;;;2.40;76.54;99498.47;5005416;28;19913;-73
2022/12/04 12:45:55;;;;;;;;;;;;;;;2.48;73.17;99522.25;5003966;28;20338;-73
2022/12/04 12:48:26;;;;;;;;;;;;;;;2.68;68.70;99535.13;5006543;28;19917;-73
2022/12/04 12:51:02;;;;;;;;;;;;;;;2.70;66.07;99548.72;5005519;28;19922;-73
2022/12/04 12:53:28;;;;;;;;;;;;;;;2.11;67.91;99526.13;5002789;28;19983;-73
2022/12/04 12:55:54;;;;;;;;;;;;;;;2.78;62.49;99564.03;5001995;28;19918;-73
2022/12/04 12:58:19;;;;;;;;;;;;;;;2.83;65.33;99570.00;5005816;28;19959;-73
2022/12/04 13:00:54;;;;;;;;;;;;;;;2.63;64.69;99562.22;5006076;28;19925;-73
2022/12/04 13:03:19;;;;;;;;;;;;;;;2.55;65.56;99551.13;5005896;28;19913;-73
2022/12/04 13:05:45;;;;;;;;;;;;;;;2.83;63.25;99554.75;5007224;28;19928;-73